sensor_id;sensor_type;location;lat;lon;timestamp;temperature;humidity
10530;DHT22;5313;48.834;9.228;2022-11-11T00:00:37;6.20;99.90
10530;DHT22;5313;48.834;9.228;2022-11-11T00:03:03;6.20;99.90
10530;DHT22;5313;48.834;9.228;2022-11-11T00:05:31;6.20;99.90
10530;DHT22;5313;48.834;9.228;2022-11-11T00:07:57;6.30;99.90
10530;DHT22;5313;48.834;9.228;2022-11-11T00:10:24;6.30;99.90
10530;DHT22;5313;48.834;9.228;2022-11-11T00:12:50;6.30;99.90
10530;DHT22;5313;48.834;9.228;2022-11-11T00:15:15;6.20;99.90
10530;DHT22;5313;48.834;9.228;2022-11-11T00:17:41;6.10;99.90
10530;DHT22;5313;48.834;9.228;2022-11-11T00:20:25;6.20;99.90
10530;DHT22;5313;48.834;9.228;2022-11-11T00:23:19;6.10;99.90
10530;DHT22;5313;48.834;9.228;2022-11-11T00:26:04;6.00;99.90
10530;DHT22;5313;48.834;9.228;2022-11-11T00:28:30;6.00;99.90
10530;DHT22;5313;48.834;9.228;2022-11-11T00:31:06;6.00;99.90
10530;DHT22;5313;48.834;9.228;2022-11-11T00:33:32;5.90;99.90
10530;DHT22;5313;48.834;9.228;2022-11-11T00:35:58;5.90;99.90
10530;DHT22;5313;48.834;9.228;2022-11-11T00:38:24;6.00;99.90
10530;DHT22;5313;48.834;9.228;2022-11-11T00:41:08;6.10;99.90
10530;DHT22;5313;48.834;9.228;2022-11-11T00:43:34;6.20;99.90
10530;DHT22;5313;48.834;9.228;2022-11-11T00:46:00;6.10;99.90
10530;DHT22;5313;48.834;9.228;2022-11-11T00:48:44;6.10;99.90
10530;DHT22;5313;48.834;9.228;2022-11-11T00:51:28;6.00;99.90
10530;DHT22;5313;48.834;9.228;2022-11-11T00:53:54;5.90;99.90
10530;DHT22;5313;48.834;9.228;2022-11-11T00:56:21;6.00;99.90
10530;DHT22;5313;48.834;9.228;2022-11-11T00:58:47;6.00;99.90
10530;DHT22;5313;48.834;9.228;2022-11-11T01:01:12;5.90;99.90
10530;DHT22;5313;48.834;9.228;2022-11-11T01:03:38;5.80;99.90
10530;DHT22;5313;48.834;9.228;2022-11-11T01:06:04;5.80;99.90
10530;DHT22;5313;48.834;9.228;2022-11-11T01:08:31;5.90;99.90
10530;DHT22;5313;48.834;9.228;2022-11-11T01:10:56;5.80;99.90
10530;DHT22;5313;48.834;9.228;2022-11-11T01:13:25;5.80;99.90
10530;DHT22;5313;48.834;9.228;2022-11-11T01:15:57;5.80;99.90
10530;DHT22;5313;48.834;9.228;2022-11-11T01:18:25;5.70;99.90
10530;DHT22;5313;48.834;9.228;2022-11-11T01:21:02;5.70;99.90
10530;DHT22;5313;48.834;9.228;2022-11-11T01:23:29;5.80;99.90
10530;DHT22;5313;48.834;9.228;2022-11-11T01:26:33;5.80;99.90
10530;DHT22;5313;48.834;9.228;2022-11-11T01:28:53;5.70;99.90
10530;DHT22;5313;48.834;9.228;2022-11-11T01:31:21;5.90;99.90
10530;DHT22;5313;48.834;9.228;2022-11-11T01:33:47;5.90;99.90
10530;DHT22;5313;48.834;9.228;2022-11-11T01:36:15;6.00;99.90
10530;DHT22;5313;48.834;9.228;2022-11-11T01:38:41;5.90;99.90
10530;DHT22;5313;48.834;9.228;2022-11-11T01:41:10;6.00;99.90
10530;DHT22;5313;48.834;9.228;2022-11-11T01:43:54;5.90;99.90
10530;DHT22;5313;48.834;9.228;2022-11-11T01:46:33;5.90;99.90
10530;DHT22;5313;48.834;9.228;2022-11-11T01:52:12;5.80;99.90
10530;DHT22;5313;48.834;9.228;2022-11-11T01:57:27;5.60;99.90
10530;DHT22;5313;48.834;9.228;2022-11-11T02:00:01;5.60;99.90
10530;DHT22;5313;48.834;9.228;2022-11-11T02:02:49;5.60;99.90
10530;DHT22;5313;48.834;9.228;2022-11-11T02:05:18;5.70;99.90
10530;DHT22;5313;48.834;9.228;2022-11-11T02:13:27;5.60;99.90
10530;DHT22;5313;48.834;9.228;2022-11-11T02:16:12;5.60;99.90
10530;DHT22;5313;48.834;9.228;2022-11-11T02:18:38;5.50;99.90
10530;DHT22;5313;48.834;9.228;2022-11-11T02:21:04;5.50;99.90
10530;DHT22;5313;48.834;9.228;2022-11-11T02:23:38;5.60;99.90
10530;DHT22;5313;48.834;9.228;2022-11-11T02:26:06;5.50;99.90
10530;DHT22;5313;48.834;9.228;2022-11-11T02:28:34;5.50;99.90
10530;DHT22;5313;48.834;9.228;2022-11-11T02:31:00;5.50;99.90
10530;DHT22;5313;48.834;9.228;2022-11-11T02:33:26;5.40;99.90
10530;DHT22;5313;48.834;9.228;2022-11-11T02:35:54;5.40;99.90
10530;DHT22;5313;48.834;9.228;2022-11-11T02:38:22;5.40;99.90
10530;DHT22;5313;48.834;9.228;2022-11-11T02:40:48;5.40;99.90
10530;DHT22;5313;48.834;9.228;2022-11-11T02:43:33;5.30;99.90
10530;DHT22;5313;48.834;9.228;2022-11-11T02:46:00;5.30;99.90
10530;DHT22;5313;48.834;9.228;2022-11-11T02:48:26;5.30;99.90
10530;DHT22;5313;48.834;9.228;2022-11-11T02:50:53;5.20;99.90
10530;DHT22;5313;48.834;9.228;2022-11-11T02:53:19;5.10;99.90
10530;DHT22;5313;48.834;9.228;2022-11-11T02:55:44;5.20;99.90
10530;DHT22;5313;48.834;9.228;2022-11-11T02:58:11;5.20;99.90
10530;DHT22;5313;48.834;9.228;2022-11-11T03:00:37;5.20;99.90
10530;DHT22;5313;48.834;9.228;2022-11-11T03:03:02;5.30;99.90
10530;DHT22;5313;48.834;9.228;2022-11-11T03:05:28;5.80;99.90
10530;DHT22;5313;48.834;9.228;2022-11-11T03:07:53;5.40;99.90
10530;DHT22;5313;48.834;9.228;2022-11-11T03:10:19;5.40;99.90
10530;DHT22;5313;48.834;9.228;2022-11-11T03:12:44;5.50;99.90
10530;DHT22;5313;48.834;9.228;2022-11-11T03:15:10;5.50;99.90
10530;DHT22;5313;48.834;9.228;2022-11-11T03:17:36;5.40;99.90
10530;DHT22;5313;48.834;9.228;2022-11-11T03:20:06;5.40;99.90
10530;DHT22;5313;48.834;9.228;2022-11-11T03:23:04;5.40;99.90
10530;DHT22;5313;48.834;9.228;2022-11-11T03:25:30;5.40;99.90
10530;DHT22;5313;48.834;9.228;2022-11-11T03:28:13;5.40;99.90
10530;DHT22;5313;48.834;9.228;2022-11-11T03:30:41;5.40;99.90
10530;DHT22;5313;48.834;9.228;2022-11-11T03:33:06;5.40;99.90
10530;DHT22;5313;48.834;9.228;2022-11-11T03:35:33;5.30;99.90
10530;DHT22;5313;48.834;9.228;2022-11-11T03:37:58;5.20;99.90
10530;DHT22;5313;48.834;9.228;2022-11-11T03:40:46;5.10;99.90
10530;DHT22;5313;48.834;9.228;2022-11-11T03:43:14;5.20;99.90
10530;DHT22;5313;48.834;9.228;2022-11-11T03:45:40;5.20;99.90
10530;DHT22;5313;48.834;9.228;2022-11-11T03:48:06;5.30;99.90
10530;DHT22;5313;48.834;9.228;2022-11-11T03:50:32;5.30;99.90
10530;DHT22;5313;48.834;9.228;2022-11-11T03:52:58;5.30;99.90
10530;DHT22;5313;48.834;9.228;2022-11-11T03:55:23;5.20;99.90
10530;DHT22;5313;48.834;9.228;2022-11-11T03:57:49;5.10;99.90
10530;DHT22;5313;48.834;9.228;2022-11-11T04:00:17;5.10;99.90
10530;DHT22;5313;48.834;9.228;2022-11-11T04:02:43;5.10;99.90
10530;DHT22;5313;48.834;9.228;2022-11-11T04:05:27;5.10;99.90
10530;DHT22;5313;48.834;9.228;2022-11-11T04:08:13;5.10;99.90
10530;DHT22;5313;48.834;9.228;2022-11-11T04:10:58;5.10;99.90
10530;DHT22;5313;48.834;9.228;2022-11-11T04:13:25;5.00;99.90
10530;DHT22;5313;48.834;9.228;2022-11-11T04:16:09;4.90;99.90
10530;DHT22;5313;48.834;9.228;2022-11-11T04:18:36;4.80;99.90
10530;DHT22;5313;48.834;9.228;2022-11-11T04:21:21;4.90;99.90
10530;DHT22;5313;48.834;9.228;2022-11-11T04:24:06;4.90;99.90
10530;DHT22;5313;48.834;9.228;2022-11-11T04:26:52;4.90;99.90
10530;DHT22;5313;48.834;9.228;2022-11-11T04:29:18;4.90;99.90
10530;DHT22;5313;48.834;9.228;2022-11-11T04:31:57;4.90;99.90
10530;DHT22;5313;48.834;9.228;2022-11-11T04:34:43;5.00;99.90
10530;DHT22;5313;48.834;9.228;2022-11-11T04:37:08;4.90;99.90
10530;DHT22;5313;48.834;9.228;2022-11-11T04:39:34;5.00;99.90
10530;DHT22;5313;48.834;9.228;2022-11-11T04:42:18;4.90;99.90
10530;DHT22;5313;48.834;9.228;2022-11-11T04:44:45;4.90;99.90
10530;DHT22;5313;48.834;9.228;2022-11-11T04:47:29;4.90;99.90
10530;DHT22;5313;48.834;9.228;2022-11-11T04:49:54;4.90;99.90
10530;DHT22;5313;48.834;9.228;2022-11-11T04:52:20;4.90;99.90
10530;DHT22;5313;48.834;9.228;2022-11-11T04:54:55;4.90;99.90
10530;DHT22;5313;48.834;9.228;2022-11-11T04:57:49;4.90;99.90
10530;DHT22;5313;48.834;9.228;2022-11-11T05:00:17;4.90;99.90
10530;DHT22;5313;48.834;9.228;2022-11-11T05:02:43;4.80;99.90
10530;DHT22;5313;48.834;9.228;2022-11-11T05:05:28;4.70;99.90
10530;DHT22;5313;48.834;9.228;2022-11-11T05:07:54;4.60;99.90
10530;DHT22;5313;48.834;9.228;2022-11-11T05:10:38;4.60;99.90
10530;DHT22;5313;48.834;9.228;2022-11-11T05:13:04;4.70;99.90
10530;DHT22;5313;48.834;9.228;2022-11-11T05:15:48;4.70;99.90
10530;DHT22;5313;48.834;9.228;2022-11-11T05:18:32;4.80;99.90
10530;DHT22;5313;48.834;9.228;2022-11-11T05:21:19;4.80;99.90
10530;DHT22;5313;48.834;9.228;2022-11-11T05:23:46;4.90;99.90
10530;DHT22;5313;48.834;9.228;2022-11-11T05:26:30;4.90;99.90
10530;DHT22;5313;48.834;9.228;2022-11-11T05:28:56;4.80;99.90
10530;DHT22;5313;48.834;9.228;2022-11-11T05:31:22;4.90;99.90
10530;DHT22;5313;48.834;9.228;2022-11-11T05:33:47;4.80;99.90
10530;DHT22;5313;48.834;9.228;2022-11-11T05:36:13;4.70;99.90
10530;DHT22;5313;48.834;9.228;2022-11-11T05:38:38;4.60;99.90
10530;DHT22;5313;48.834;9.228;2022-11-11T05:41:04;4.60;99.90
10530;DHT22;5313;48.834;9.228;2022-11-11T05:43:30;4.60;99.90
10530;DHT22;5313;48.834;9.228;2022-11-11T05:45:55;4.70;99.90
10530;DHT22;5313;48.834;9.228;2022-11-11T05:48:21;4.70;99.90
10530;DHT22;5313;48.834;9.228;2022-11-11T05:50:46;4.60;99.90
10530;DHT22;5313;48.834;9.228;2022-11-11T05:53:12;4.50;99.90
10530;DHT22;5313;48.834;9.228;2022-11-11T05:55:37;4.40;99.90
10530;DHT22;5313;48.834;9.228;2022-11-11T05:58:03;4.50;99.90
10530;DHT22;5313;48.834;9.228;2022-11-11T06:00:28;4.60;99.90
10530;DHT22;5313;48.834;9.228;2022-11-11T06:02:59;4.60;99.90
10530;DHT22;5313;48.834;9.228;2022-11-11T06:05:25;4.60;99.90
10530;DHT22;5313;48.834;9.228;2022-11-11T06:07:51;4.60;99.90
10530;DHT22;5313;48.834;9.228;2022-11-11T06:10:19;4.60;99.90
10530;DHT22;5313;48.834;9.228;2022-11-11T06:13:00;4.70;99.90
10530;DHT22;5313;48.834;9.228;2022-11-11T06:15:38;4.70;99.90
10530;DHT22;5313;48.834;9.228;2022-11-11T06:18:06;4.60;99.90
10530;DHT22;5313;48.834;9.228;2022-11-11T06:20:32;4.50;99.90
10530;DHT22;5313;48.834;9.228;2022-11-11T06:23:00;4.50;99.90
10530;DHT22;5313;48.834;9.228;2022-11-11T06:25:30;4.60;99.90
10530;DHT22;5313;48.834;9.228;2022-11-11T06:28:15;4.60;99.90
10530;DHT22;5313;48.834;9.228;2022-11-11T06:30:42;4.70;99.90
10530;DHT22;5313;48.834;9.228;2022-11-11T06:33:07;4.60;99.90
10530;DHT22;5313;48.834;9.228;2022-11-11T06:35:35;4.70;99.90
10530;DHT22;5313;48.834;9.228;2022-11-11T06:38:02;4.70;99.90
10530;DHT22;5313;48.834;9.228;2022-11-11T06:40:27;4.60;99.90
10530;DHT22;5313;48.834;9.228;2022-11-11T06:42:53;4.60;99.90
10530;DHT22;5313;48.834;9.228;2022-11-11T06:45:19;4.60;99.90
10530;DHT22;5313;48.834;9.228;2022-11-11T06:47:44;4.60;99.90
10530;DHT22;5313;48.834;9.228;2022-11-11T06:50:10;4.60;99.90
10530;DHT22;5313;48.834;9.228;2022-11-11T06:52:35;4.60;99.90
10530;DHT22;5313;48.834;9.228;2022-11-11T06:55:01;4.70;99.90
10530;DHT22;5313;48.834;9.228;2022-11-11T06:57:26;4.80;99.90
10530;DHT22;5313;48.834;9.228;2022-11-11T06:59:52;4.80;99.90
10530;DHT22;5313;48.834;9.228;2022-11-11T07:02:17;4.90;99.90
10530;DHT22;5313;48.834;9.228;2022-11-11T07:04:43;4.90;99.90
10530;DHT22;5313;48.834;9.228;2022-11-11T07:07:08;4.90;99.90
10530;DHT22;5313;48.834;9.228;2022-11-11T07:09:34;4.90;99.90
10530;DHT22;5313;48.834;9.228;2022-11-11T07:11:59;4.80;99.90
10530;DHT22;5313;48.834;9.228;2022-11-11T07:14:26;4.80;99.90
10530;DHT22;5313;48.834;9.228;2022-11-11T07:16:51;4.80;99.90
10530;DHT22;5313;48.834;9.228;2022-11-11T07:19:17;4.90;99.90
10530;DHT22;5313;48.834;9.228;2022-11-11T07:21:43;4.90;99.90
10530;DHT22;5313;48.834;9.228;2022-11-11T07:24:08;4.80;99.90
10530;DHT22;5313;48.834;9.228;2022-11-11T07:26:34;4.80;99.90
10530;DHT22;5313;48.834;9.228;2022-11-11T07:28:59;4.80;99.90
10530;DHT22;5313;48.834;9.228;2022-11-11T07:31:25;5.00;99.90
10530;DHT22;5313;48.834;9.228;2022-11-11T07:33:50;5.10;99.90
10530;DHT22;5313;48.834;9.228;2022-11-11T07:36:16;5.20;99.90
10530;DHT22;5313;48.834;9.228;2022-11-11T07:38:41;5.30;99.90
10530;DHT22;5313;48.834;9.228;2022-11-11T07:41:07;5.30;99.90
10530;DHT22;5313;48.834;9.228;2022-11-11T07:43:32;5.30;99.90
10530;DHT22;5313;48.834;9.228;2022-11-11T07:45:58;5.40;99.90
10530;DHT22;5313;48.834;9.228;2022-11-11T07:48:23;5.50;99.90
10530;DHT22;5313;48.834;9.228;2022-11-11T07:50:51;5.50;99.90
10530;DHT22;5313;48.834;9.228;2022-11-11T07:53:18;5.60;99.90
10530;DHT22;5313;48.834;9.228;2022-11-11T07:55:44;5.70;99.90
10530;DHT22;5313;48.834;9.228;2022-11-11T07:58:11;5.70;99.90
10530;DHT22;5313;48.834;9.228;2022-11-11T08:00:36;5.70;99.90
10530;DHT22;5313;48.834;9.228;2022-11-11T08:03:02;5.70;99.90
10530;DHT22;5313;48.834;9.228;2022-11-11T08:05:27;5.80;99.90
10530;DHT22;5313;48.834;9.228;2022-11-11T08:07:53;5.80;99.90
10530;DHT22;5313;48.834;9.228;2022-11-11T08:10:18;5.80;99.90
10530;DHT22;5313;48.834;9.228;2022-11-11T08:12:44;5.80;99.90
10530;DHT22;5313;48.834;9.228;2022-11-11T08:15:28;5.90;99.90
10530;DHT22;5313;48.834;9.228;2022-11-11T08:17:54;6.10;99.90
10530;DHT22;5313;48.834;9.228;2022-11-11T08:20:19;6.10;99.90
10530;DHT22;5313;48.834;9.228;2022-11-11T08:22:45;6.20;99.90
10530;DHT22;5313;48.834;9.228;2022-11-11T08:25:11;6.30;99.90
10530;DHT22;5313;48.834;9.228;2022-11-11T08:27:40;6.30;99.90
10530;DHT22;5313;48.834;9.228;2022-11-11T08:30:07;6.20;99.90
10530;DHT22;5313;48.834;9.228;2022-11-11T08:32:33;6.30;99.90
10530;DHT22;5313;48.834;9.228;2022-11-11T08:34:59;6.40;99.90
10530;DHT22;5313;48.834;9.228;2022-11-11T08:37:24;7.10;99.90
10530;DHT22;5313;48.834;9.228;2022-11-11T08:39:50;6.40;99.90
10530;DHT22;5313;48.834;9.228;2022-11-11T08:42:17;6.60;99.90
10530;DHT22;5313;48.834;9.228;2022-11-11T08:44:42;6.60;99.90
10530;DHT22;5313;48.834;9.228;2022-11-11T08:47:08;6.70;99.90
10530;DHT22;5313;48.834;9.228;2022-11-11T08:49:34;6.80;99.90
10530;DHT22;5313;48.834;9.228;2022-11-11T08:51:59;6.90;99.90
10530;DHT22;5313;48.834;9.228;2022-11-11T08:54:25;7.00;99.90
10530;DHT22;5313;48.834;9.228;2022-11-11T08:56:50;7.40;99.90
10530;DHT22;5313;48.834;9.228;2022-11-11T08:59:16;7.70;99.90
10530;DHT22;5313;48.834;9.228;2022-11-11T09:01:41;7.90;99.90
10530;DHT22;5313;48.834;9.228;2022-11-11T09:04:07;8.10;99.90
10530;DHT22;5313;48.834;9.228;2022-11-11T09:06:32;8.20;99.90
10530;DHT22;5313;48.834;9.228;2022-11-11T09:08:58;8.30;99.90
10530;DHT22;5313;48.834;9.228;2022-11-11T09:11:24;8.50;99.90
10530;DHT22;5313;48.834;9.228;2022-11-11T09:13:49;8.80;99.90
10530;DHT22;5313;48.834;9.228;2022-11-11T09:16:15;8.80;99.90
10530;DHT22;5313;48.834;9.228;2022-11-11T09:18:40;9.10;99.90
10530;DHT22;5313;48.834;9.228;2022-11-11T09:21:06;9.00;99.90
10530;DHT22;5313;48.834;9.228;2022-11-11T09:23:32;9.20;99.90
10530;DHT22;5313;48.834;9.228;2022-11-11T09:26:01;9.30;99.90
10530;DHT22;5313;48.834;9.228;2022-11-11T09:28:29;9.50;99.90
10530;DHT22;5313;48.834;9.228;2022-11-11T09:31:00;9.80;99.90
10530;DHT22;5313;48.834;9.228;2022-11-11T09:33:26;10.10;99.90
10530;DHT22;5313;48.834;9.228;2022-11-11T09:35:52;10.10;99.90
10530;DHT22;5313;48.834;9.228;2022-11-11T09:38:17;10.10;99.90
10530;DHT22;5313;48.834;9.228;2022-11-11T09:41:04;10.40;99.90
10530;DHT22;5313;48.834;9.228;2022-11-11T09:43:55;10.30;99.90
10530;DHT22;5313;48.834;9.228;2022-11-11T09:46:36;10.10;99.90
10530;DHT22;5313;48.834;9.228;2022-11-11T09:49:37;11.00;99.90
10530;DHT22;5313;48.834;9.228;2022-11-11T09:52:27;10.20;99.90
10530;DHT22;5313;48.834;9.228;2022-11-11T09:54:58;10.40;99.90
10530;DHT22;5313;48.834;9.228;2022-11-11T09:57:47;10.30;99.90
10530;DHT22;5313;48.834;9.228;2022-11-11T10:00:21;10.20;99.90
10530;DHT22;5313;48.834;9.228;2022-11-11T10:02:52;10.30;99.90
10530;DHT22;5313;48.834;9.228;2022-11-11T10:05:32;10.30;99.90
10530;DHT22;5313;48.834;9.228;2022-11-11T10:12:57;10.60;99.90
10530;DHT22;5313;48.834;9.228;2022-11-11T10:15:28;10.90;99.90
10530;DHT22;5313;48.834;9.228;2022-11-11T10:20:28;11.10;99.90
10530;DHT22;5313;48.834;9.228;2022-11-11T10:23:31;11.00;99.90
10530;DHT22;5313;48.834;9.228;2022-11-11T10:26:02;11.30;99.90
10530;DHT22;5313;48.834;9.228;2022-11-11T10:28:32;11.40;99.90
10530;DHT22;5313;48.834;9.228;2022-11-11T10:31:00;11.50;99.90
10530;DHT22;5313;48.834;9.228;2022-11-11T10:33:42;11.70;99.90
10530;DHT22;5313;48.834;9.228;2022-11-11T10:36:15;12.00;99.90
10530;DHT22;5313;48.834;9.228;2022-11-11T10:39:00;12.20;99.90
10530;DHT22;5313;48.834;9.228;2022-11-11T10:43:56;12.40;99.90
10530;DHT22;5313;48.834;9.228;2022-11-11T10:49:24;12.80;99.90
10530;DHT22;5313;48.834;9.228;2022-11-11T10:52:20;12.40;99.90
10530;DHT22;5313;48.834;9.228;2022-11-11T10:57:35;12.80;99.90
10530;DHT22;5313;48.834;9.228;2022-11-11T11:00:13;13.10;99.90
10530;DHT22;5313;48.834;9.228;2022-11-11T11:03:16;13.10;99.90
10530;DHT22;5313;48.834;9.228;2022-11-11T11:05:49;13.30;99.90
10530;DHT22;5313;48.834;9.228;2022-11-11T11:08:25;14.00;99.90
10530;DHT22;5313;48.834;9.228;2022-11-11T11:10:57;14.00;99.90
10530;DHT22;5313;48.834;9.228;2022-11-11T11:13:49;13.90;99.90
10530;DHT22;5313;48.834;9.228;2022-11-11T11:16:25;14.00;99.90
10530;DHT22;5313;48.834;9.228;2022-11-11T11:19:13;13.80;99.90
10530;DHT22;5313;48.834;9.228;2022-11-11T11:21:54;13.50;99.90
10530;DHT22;5313;48.834;9.228;2022-11-11T11:24:23;13.80;99.90
10530;DHT22;5313;48.834;9.228;2022-11-11T11:26:55;13.40;99.90
10530;DHT22;5313;48.834;9.228;2022-11-11T11:31:51;13.70;99.90
10530;DHT22;5313;48.834;9.228;2022-11-11T11:34:17;14.20;99.90
10530;DHT22;5313;48.834;9.228;2022-11-11T11:36:42;14.40;99.90
10530;DHT22;5313;48.834;9.228;2022-11-11T11:39:08;14.30;99.90
10530;DHT22;5313;48.834;9.228;2022-11-11T11:41:42;14.20;99.90
10530;DHT22;5313;48.834;9.228;2022-11-11T11:46:54;14.40;99.90
10530;DHT22;5313;48.834;9.228;2022-11-11T11:52:36;15.00;99.90
10530;DHT22;5313;48.834;9.228;2022-11-11T12:00:28;16.30;99.90
10530;DHT22;5313;48.834;9.228;2022-11-11T12:03:07;16.40;99.90
10530;DHT22;5313;48.834;9.228;2022-11-11T12:05:41;15.80;99.90
10530;DHT22;5313;48.834;9.228;2022-11-11T12:08:36;16.10;99.90
10530;DHT22;5313;48.834;9.228;2022-11-11T12:11:17;16.60;99.90
10530;DHT22;5313;48.834;9.228;2022-11-11T12:14:25;16.40;99.90
10530;DHT22;5313;48.834;9.228;2022-11-11T12:20:01;15.50;99.90
10530;DHT22;5313;48.834;9.228;2022-11-11T12:22:40;15.60;99.90
10530;DHT22;5313;48.834;9.228;2022-11-11T12:30:24;15.30;99.90
10530;DHT22;5313;48.834;9.228;2022-11-11T12:38:36;14.80;99.90
10530;DHT22;5313;48.834;9.228;2022-11-11T12:44:08;14.80;99.90
10530;DHT22;5313;48.834;9.228;2022-11-11T12:46:52;15.00;99.90
10530;DHT22;5313;48.834;9.228;2022-11-11T12:49:35;15.20;99.90
10530;DHT22;5313;48.834;9.228;2022-11-11T12:52:30;15.30;99.90
10530;DHT22;5313;48.834;9.228;2022-11-11T12:58:22;16.00;99.90
10530;DHT22;5313;48.834;9.228;2022-11-11T13:01:03;15.80;99.90
10530;DHT22;5313;48.834;9.228;2022-11-11T13:11:51;14.80;99.90
10530;DHT22;5313;48.834;9.228;2022-11-11T13:17:00;14.90;99.90
10530;DHT22;5313;48.834;9.228;2022-11-11T13:19:40;14.80;99.90
10530;DHT22;5313;48.834;9.228;2022-11-11T13:22:16;15.00;99.90
10530;DHT22;5313;48.834;9.228;2022-11-11T13:24:43;15.20;99.90
10530;DHT22;5313;48.834;9.228;2022-11-11T13:30:30;15.50;99.90
10530;DHT22;5313;48.834;9.228;2022-11-11T13:33:10;15.40;99.90
10530;DHT22;5313;48.834;9.228;2022-11-11T13:35:57;15.10;99.90
10530;DHT22;5313;48.834;9.228;2022-11-11T13:38:31;14.90;99.90
10530;DHT22;5313;48.834;9.228;2022-11-11T13:41:03;15.00;99.90
10530;DHT22;5313;48.834;9.228;2022-11-11T13:43:34;15.00;99.90
10530;DHT22;5313;48.834;9.228;2022-11-11T13:46:02;15.10;99.90
10530;DHT22;5313;48.834;9.228;2022-11-11T13:48:35;16.00;99.90
10530;DHT22;5313;48.834;9.228;2022-11-11T13:51:22;15.20;99.90
10530;DHT22;5313;48.834;9.228;2022-11-11T13:53:49;15.30;99.90
10530;DHT22;5313;48.834;9.228;2022-11-11T13:56:44;15.00;99.90
10530;DHT22;5313;48.834;9.228;2022-11-11T13:59:56;15.00;99.90
10530;DHT22;5313;48.834;9.228;2022-11-11T14:12:52;15.60;99.90
10530;DHT22;5313;48.834;9.228;2022-11-11T14:15:46;16.90;99.90
10530;DHT22;5313;48.834;9.228;2022-11-11T14:20:46;14.50;99.90
10530;DHT22;5313;48.834;9.228;2022-11-11T14:28:31;14.30;99.90
10530;DHT22;5313;48.834;9.228;2022-11-11T14:49:52;13.90;99.90
10530;DHT22;5313;48.834;9.228;2022-11-11T14:55:03;14.90;99.90
10530;DHT22;5313;48.834;9.228;2022-11-11T15:05:16;13.80;99.90
10530;DHT22;5313;48.834;9.228;2022-11-11T15:08:02;13.80;99.90
10530;DHT22;5313;48.834;9.228;2022-11-11T15:10:41;13.70;99.90
10530;DHT22;5313;48.834;9.228;2022-11-11T15:13:15;13.70;99.90
10530;DHT22;5313;48.834;9.228;2022-11-11T15:22:07;13.20;99.90
10530;DHT22;5313;48.834;9.228;2022-11-11T15:24:49;13.10;99.90
10530;DHT22;5313;48.834;9.228;2022-11-11T15:27:38;13.00;99.90
10530;DHT22;5313;48.834;9.228;2022-11-11T15:30:17;12.60;99.90
10530;DHT22;5313;48.834;9.228;2022-11-11T15:33:03;12.50;99.90
10530;DHT22;5313;48.834;9.228;2022-11-11T15:35:44;12.50;99.90
10530;DHT22;5313;48.834;9.228;2022-11-11T15:38:16;12.50;99.90
10530;DHT22;5313;48.834;9.228;2022-11-11T15:43:34;12.30;99.90
10530;DHT22;5313;48.834;9.228;2022-11-11T15:46:04;12.30;99.90
10530;DHT22;5313;48.834;9.228;2022-11-11T15:48:37;12.20;99.90
10530;DHT22;5313;48.834;9.228;2022-11-11T15:51:24;12.10;99.90
10530;DHT22;5313;48.834;9.228;2022-11-11T15:53:51;12.00;99.90
10530;DHT22;5313;48.834;9.228;2022-11-11T15:56:31;12.00;99.90
10530;DHT22;5313;48.834;9.228;2022-11-11T15:58:57;11.80;99.90
10530;DHT22;5313;48.834;9.228;2022-11-11T16:01:27;11.50;99.90
10530;DHT22;5313;48.834;9.228;2022-11-11T16:03:53;11.40;99.90
10530;DHT22;5313;48.834;9.228;2022-11-11T16:06:19;11.40;99.90
10530;DHT22;5313;48.834;9.228;2022-11-11T16:08:50;11.30;99.90
10530;DHT22;5313;48.834;9.228;2022-11-11T16:11:18;11.30;99.90
10530;DHT22;5313;48.834;9.228;2022-11-11T16:14:01;11.30;99.90
10530;DHT22;5313;48.834;9.228;2022-11-11T16:16:34;11.30;99.90
10530;DHT22;5313;48.834;9.228;2022-11-11T16:19:12;11.20;99.90
10530;DHT22;5313;48.834;9.228;2022-11-11T16:21:50;11.00;99.90
10530;DHT22;5313;48.834;9.228;2022-11-11T16:24:30;10.80;99.90
10530;DHT22;5313;48.834;9.228;2022-11-11T16:26:57;10.90;99.90
10530;DHT22;5313;48.834;9.228;2022-11-11T16:29:29;10.90;99.90
10530;DHT22;5313;48.834;9.228;2022-11-11T16:31:56;10.90;99.90
10530;DHT22;5313;48.834;9.228;2022-11-11T16:39:25;10.80;99.90
10530;DHT22;5313;48.834;9.228;2022-11-11T16:41:53;10.70;99.90
10530;DHT22;5313;48.834;9.228;2022-11-11T16:44:47;10.50;99.90
10530;DHT22;5313;48.834;9.228;2022-11-11T16:50:23;10.30;99.90
10530;DHT22;5313;48.834;9.228;2022-11-11T16:52:56;10.30;99.90
10530;DHT22;5313;48.834;9.228;2022-11-11T16:55:34;10.20;99.90
10530;DHT22;5313;48.834;9.228;2022-11-11T16:58:18;10.00;99.90
10530;DHT22;5313;48.834;9.228;2022-11-11T17:00:45;10.00;99.90
10530;DHT22;5313;48.834;9.228;2022-11-11T17:08:37;9.90;99.90
10530;DHT22;5313;48.834;9.228;2022-11-11T17:11:05;9.90;99.90
10530;DHT22;5313;48.834;9.228;2022-11-11T17:13:34;9.80;99.90
10530;DHT22;5313;48.834;9.228;2022-11-11T17:16:02;9.70;99.90
10530;DHT22;5313;48.834;9.228;2022-11-11T17:18:37;9.70;99.90
10530;DHT22;5313;48.834;9.228;2022-11-11T17:21:03;9.70;99.90
10530;DHT22;5313;48.834;9.228;2022-11-11T17:23:29;9.60;99.90
10530;DHT22;5313;48.834;9.228;2022-11-11T17:25:56;9.50;99.90
10530;DHT22;5313;48.834;9.228;2022-11-11T17:28:22;9.40;99.90
10530;DHT22;5313;48.834;9.228;2022-11-11T17:30:48;9.40;99.90
10530;DHT22;5313;48.834;9.228;2022-11-11T17:33:13;9.30;99.90
10530;DHT22;5313;48.834;9.228;2022-11-11T17:35:39;9.20;99.90
10530;DHT22;5313;48.834;9.228;2022-11-11T17:38:04;9.10;99.90
10530;DHT22;5313;48.834;9.228;2022-11-11T17:40:30;9.10;99.90
10530;DHT22;5313;48.834;9.228;2022-11-11T17:42:56;9.10;99.90
10530;DHT22;5313;48.834;9.228;2022-11-11T17:45:21;9.00;99.90
10530;DHT22;5313;48.834;9.228;2022-11-11T17:47:47;9.00;99.90
10530;DHT22;5313;48.834;9.228;2022-11-11T17:50:13;8.90;99.90
10530;DHT22;5313;48.834;9.228;2022-11-11T17:52:38;8.90;99.90
10530;DHT22;5313;48.834;9.228;2022-11-11T17:55:04;8.90;99.90
10530;DHT22;5313;48.834;9.228;2022-11-11T17:57:30;8.90;99.90
10530;DHT22;5313;48.834;9.228;2022-11-11T17:59:56;8.90;99.90
10530;DHT22;5313;48.834;9.228;2022-11-11T18:02:21;9.00;99.90
10530;DHT22;5313;48.834;9.228;2022-11-11T18:04:47;9.00;99.90
10530;DHT22;5313;48.834;9.228;2022-11-11T18:07:13;9.00;99.90
10530;DHT22;5313;48.834;9.228;2022-11-11T18:09:38;8.80;99.90
10530;DHT22;5313;48.834;9.228;2022-11-11T18:12:07;8.80;99.90
10530;DHT22;5313;48.834;9.228;2022-11-11T18:14:32;10.00;99.90
10530;DHT22;5313;48.834;9.228;2022-11-11T18:16:58;8.80;99.90
10530;DHT22;5313;48.834;9.228;2022-11-11T18:19:23;8.80;99.90
10530;DHT22;5313;48.834;9.228;2022-11-11T18:21:49;8.80;99.90
10530;DHT22;5313;48.834;9.228;2022-11-11T18:24:14;8.70;99.90
10530;DHT22;5313;48.834;9.228;2022-11-11T18:26:40;8.70;99.90
10530;DHT22;5313;48.834;9.228;2022-11-11T18:29:07;8.60;99.90
10530;DHT22;5313;48.834;9.228;2022-11-11T18:31:33;8.30;99.90
10530;DHT22;5313;48.834;9.228;2022-11-11T18:33:59;8.40;99.90
10530;DHT22;5313;48.834;9.228;2022-11-11T18:36:24;8.30;99.90
10530;DHT22;5313;48.834;9.228;2022-11-11T18:38:50;8.30;99.90
10530;DHT22;5313;48.834;9.228;2022-11-11T18:41:18;8.20;99.90
10530;DHT22;5313;48.834;9.228;2022-11-11T18:43:46;8.20;99.90
10530;DHT22;5313;48.834;9.228;2022-11-11T18:46:16;8.10;99.90
10530;DHT22;5313;48.834;9.228;2022-11-11T18:48:43;8.00;99.90